Time;durP1;ratioP1;P1;durP2;ratioP2;P2;SDS_P1;SDS_P2;PMS_P1;PMS_P2;Temp;Humidity;BMP_temperature;BMP_pressure;BME280_temperature;BME280_humidity;BME280_pressure;Samples;Min_cycle;Max_cycle;Signal;HPM_P1;HPM_P2
2023/03/17 00:02:02;;;;;;;3.07;1.60;;;11.00;94.70;;;;;;5032240;28;20197;-78
2023/03/17 00:04:28;;;;;;;2.77;1.30;;;11.00;94.70;;;;;;5017049;28;20654;-78
2023/03/17 00:06:54;;;;;;;2.37;1.10;;;11.00;94.80;;;;;;5015973;28;20252;-78
2023/03/17 00:09:21;;;;;;;2.35;1.10;;;11.00;94.80;;;;;;4991115;28;20592;-78
2023/03/17 00:11:47;;;;;;;5.32;1.52;;;11.00;94.80;;;;;;5015242;28;20228;-78
2023/03/17 00:14:13;;;;;;;2.45;1.63;;;10.90;94.60;;;;;;5019694;28;20186;-78
2023/03/17 00:16:42;;;;;;;5.85;1.33;;;10.90;94.70;;;;;;5016672;28;20198;-78
2023/03/17 00:19:15;;;;;;;3.30;1.80;;;10.90;94.80;;;;;;5016419;28;20182;-78
2023/03/17 00:21:41;;;;;;;6.38;2.10;;;10.80;94.80;;;;;;5014048;28;20214;-78
2023/03/17 00:24:11;;;;;;;2.87;1.40;;;10.80;94.90;;;;;;5037051;28;20209;-78
2023/03/17 00:26:37;;;;;;;3.80;1.65;;;10.80;94.70;;;;;;5035157;28;20635;-78
2023/03/17 00:29:04;;;;;;;2.90;1.60;;;10.80;95.00;;;;;;5035010;28;20276;-78
2023/03/17 00:31:31;;;;;;;3.08;1.40;;;10.70;95.00;;;;;;5048640;28;20173;-78
2023/03/17 00:33:57;;;;;;;2.30;1.38;;;10.80;95.20;;;;;;5033154;28;20182;-78
2023/03/17 00:36:26;;;;;;;1.73;1.23;;;10.80;95.20;;;;;;4999014;28;20200;-78
2023/03/17 00:38:54;;;;;;;2.97;1.50;;;10.80;95.30;;;;;;5032330;28;20178;-78
2023/03/17 00:41:21;;;;;;;1.90;1.10;;;10.80;95.30;;;;;;5015310;28;20174;-78
2023/03/17 00:43:47;;;;;;;5.13;1.58;;;10.80;95.40;;;;;;5015641;28;20181;-78
2023/03/17 00:46:22;;;;;;;2.88;1.40;;;10.70;95.30;;;;;;5048524;28;20305;-78
2023/03/17 00:48:48;;;;;;;2.40;1.50;;;10.80;95.40;;;;;;5048847;28;20758;-78
2023/03/17 00:51:17;;;;;;;5.33;1.67;;;10.70;95.30;;;;;;5017935;28;20174;-78
2023/03/17 00:53:43;;;;;;;1.85;1.10;;;10.70;95.40;;;;;;5011657;28;20620;-78
2023/03/17 00:56:18;;;;;;;2.42;1.20;;;10.70;95.50;;;;;;5013589;28;20198;-78
2023/03/17 00:58:44;;;;;;;2.58;1.20;;;10.70;95.50;;;;;;5011966;28;20778;-78
2023/03/17 01:01:11;;;;;;;3.53;1.33;;;10.70;95.60;;;;;;5012325;28;20265;-78
2023/03/17 01:03:37;;;;;;;2.90;1.90;;;10.60;95.70;;;;;;5011937;28;20186;-78
2023/03/17 01:06:06;;;;;;;2.40;1.58;;;10.60;96.10;;;;;;4995710;28;20210;-78
2023/03/17 01:08:32;;;;;;;2.20;1.45;;;10.60;95.90;;;;;;4995196;28;20186;-78
2023/03/17 01:10:58;;;;;;;2.20;1.25;;;10.60;96.00;;;;;;4995623;28;20170;-78
2023/03/17 01:13:25;;;;;;;2.70;1.23;;;10.60;96.00;;;;;;5011907;28;20896;-78
2023/03/17 01:15:51;;;;;;;2.47;1.03;;;10.60;96.40;;;;;;5014087;28;20206;-77
2023/03/17 01:18:20;;;;;;;2.63;1.70;;;10.60;96.10;;;;;;5012374;28;20577;-78
2023/03/17 01:20:47;;;;;;;2.90;1.40;;;10.60;96.20;;;;;;5020231;28;20235;-78
2023/03/17 01:23:13;;;;;;;2.70;1.73;;;10.60;96.20;;;;;;5047966;28;20177;-78
2023/03/17 01:25:41;;;;;;;4.65;1.60;;;10.60;96.30;;;;;;5031209;28;20536;-78
2023/03/17 01:28:13;;;;;;;3.55;1.42;;;10.60;96.30;;;;;;5037011;28;20219;-78
2023/03/17 01:30:39;;;;;;;3.00;2.10;;;10.60;96.30;;;;;;5047506;28;20276;-78
2023/03/17 01:33:07;;;;;;;3.40;1.83;;;10.50;96.40;;;;;;5032506;28;20340;-78
2023/03/17 01:35:34;;;;;;;2.22;1.00;;;10.50;96.40;;;;;;5014525;28;20170;-78
2023/03/17 01:38:00;;;;;;;3.35;1.92;;;10.50;96.40;;;;;;5032660;28;20170;-78
2023/03/17 01:40:30;;;;;;;2.13;1.10;;;10.50;96.50;;;;;;5047536;28;20642;-78
2023/03/17 01:43:03;;;;;;;3.53;1.77;;;10.50;96.80;;;;;;5030746;28;20186;-78
2023/03/17 01:46:08;;;;;;;2.42;1.40;;;10.40;96.50;;;;;;5047802;28;20189;-78
2023/03/17 01:48:47;;;;;;;3.00;1.10;;;10.40;96.40;;;;;;5030834;28;20181;-77
2023/03/17 01:51:45;;;;;;;2.33;1.30;;;10.40;96.50;;;;;;5028418;28;20197;-78
2023/03/17 01:54:16;;;;;;;2.70;1.30;;;10.40;96.50;;;;;;4991508;28;20170;-78
2023/03/17 01:56:44;;;;;;;3.53;1.80;;;10.30;96.60;;;;;;4992777;28;20723;-78
2023/03/17 01:59:17;;;;;;;2.45;1.40;;;10.20;96.60;;;;;;4994379;28;20252;-78
2023/03/17 02:01:47;;;;;;;3.08;1.63;;;10.20;96.70;;;;;;5010916;28;20292;-78
2023/03/17 02:04:13;;;;;;;1.90;1.50;;;10.20;96.80;;;;;;5014056;28;20220;-78
2023/03/17 02:06:39;;;;;;;2.80;1.35;;;10.20;96.90;;;;;;5011907;28;20210;-78
2023/03/17 02:09:06;;;;;;;3.00;1.20;;;10.20;97.00;;;;;;5026879;28;20204;-77
2023/03/17 02:11:33;;;;;;;2.17;1.30;;;10.20;97.40;;;;;;4983169;28;20265;-78
2023/03/17 02:13:58;;;;;;;2.83;1.20;;;10.20;97.40;;;;;;4999599;28;20225;-78
2023/03/17 02:16:25;;;;;;;2.60;1.43;;;10.20;97.20;;;;;;5025185;28;20619;-78
2023/03/17 02:18:51;;;;;;;3.20;1.55;;;10.20;97.20;;;;;;5047359;28;20181;-78
2023/03/17 02:21:24;;;;;;;10.02;1.55;;;10.20;97.20;;;;;;5024398;28;20704;-78
2023/03/17 02:23:50;;;;;;;5.25;1.98;;;10.20;97.20;;;;;;5030459;28;20533;-77
2023/03/17 02:26:18;;;;;;;2.50;1.40;;;10.20;97.20;;;;;;5030216;28;20205;-78
2023/03/17 02:28:45;;;;;;;4.40;1.48;;;10.10;97.20;;;;;;5026367;28;20202;-77
2023/03/17 02:31:11;;;;;;;3.95;1.65;;;10.10;97.30;;;;;;5029734;28;20173;-78
2023/03/17 02:33:37;;;;;;;1.80;1.20;;;10.10;97.30;;;;;;5030372;28;20805;-77
2023/03/17 02:36:03;;;;;;;3.10;1.55;;;10.10;97.40;;;;;;5031352;28;20544;-77
2023/03/17 02:38:29;;;;;;;3.87;1.70;;;10.10;97.40;;;;;;5030380;28;20223;-78
2023/03/17 02:40:59;;;;;;;3.35;1.70;;;10.00;97.50;;;;;;5032004;28;20565;-78
2023/03/17 02:43:25;;;;;;;2.85;1.20;;;10.00;97.50;;;;;;5032288;28;20177;-77
2023/03/17 02:45:54;;;;;;;2.70;1.50;;;10.00;97.50;;;;;;5035985;28;20252;-77
2023/03/17 02:48:21;;;;;;;2.63;1.20;;;10.00;97.70;;;;;;5046348;28;20260;-78
2023/03/17 02:50:47;;;;;;;2.03;1.10;;;10.00;97.70;;;;;;5013652;28;20190;-77
2023/03/17 02:53:13;;;;;;;2.00;1.20;;;10.00;97.70;;;;;;5029814;28;20245;-78
2023/03/17 02:55:39;;;;;;;2.00;1.40;;;10.00;97.70;;;;;;5031356;28;20711;-78
2023/03/17 02:58:05;;;;;;;3.50;1.85;;;9.90;98.40;;;;;;5030962;28;20176;-78
2023/03/17 03:00:31;;;;;;;2.30;1.50;;;9.90;98.30;;;;;;5031258;28;20173;-78
2023/03/17 03:02:57;;;;;;;2.43;1.40;;;9.90;98.40;;;;;;5045905;28;20284;-77
2023/03/17 03:05:22;;;;;;;2.50;1.17;;;9.90;98.30;;;;;;5031236;28;21166;-78
2023/03/17 03:07:48;;;;;;;3.27;1.60;;;9.90;98.40;;;;;;5030925;28;20296;-78
2023/03/17 03:10:14;;;;;;;2.17;1.20;;;9.90;98.40;;;;;;5046135;28;20757;-78
2023/03/17 03:12:40;;;;;;;2.28;1.42;;;9.90;98.40;;;;;;5029402;28;20699;-78
2023/03/17 03:15:08;;;;;;;2.27;1.20;;;9.90;98.50;;;;;;5029311;28;20169;-77
2023/03/17 03:17:34;;;;;;;1.70;1.20;;;9.80;98.50;;;;;;5045939;28;20600;-77
2023/03/17 03:19:59;;;;;;;2.50;1.43;;;9.80;98.50;;;;;;5024843;28;20201;-77
2023/03/17 03:22:25;;;;;;;4.33;1.80;;;9.80;98.70;;;;;;5009871;28;20163;-78
2023/03/17 03:24:51;;;;;;;2.40;1.50;;;9.80;98.80;;;;;;5026597;28;20514;-77
2023/03/17 03:27:17;;;;;;;2.07;1.50;;;9.70;98.80;;;;;;5026573;28;20190;-77
2023/03/17 03:29:43;;;;;;;2.13;1.57;;;9.80;98.80;;;;;;5011371;28;20625;-78
2023/03/17 03:32:09;;;;;;;2.60;1.50;;;9.80;98.80;;;;;;5010490;28;20198;-77
2023/03/17 03:34:34;;;;;;;2.50;1.00;;;9.70;98.80;;;;;;5011660;28;20708;-77
2023/03/17 03:37:00;;;;;;;2.00;1.50;;;9.70;98.80;;;;;;5010755;28;20605;-77
2023/03/17 03:39:26;;;;;;;2.30;1.60;;;9.70;98.90;;;;;;5011449;28;20182;-78
2023/03/17 03:41:56;;;;;;;2.43;1.40;;;9.70;99.00;;;;;;5025543;28;20328;-78
2023/03/17 03:44:22;;;;;;;4.53;1.88;;;9.60;99.00;;;;;;5026775;28;20166;-77
2023/03/17 03:46:47;;;;;;;3.20;1.40;;;9.70;99.00;;;;;;5011119;28;20212;-77
2023/03/17 03:49:13;;;;;;;3.63;2.00;;;9.60;99.10;;;;;;5011100;28;21211;-77
2023/03/17 03:51:39;;;;;;;3.50;1.47;;;9.60;99.20;;;;;;5010961;28;20647;-78
2023/03/17 03:54:05;;;;;;;4.13;1.77;;;9.60;99.20;;;;;;5026189;28;20166;-78
2023/03/17 03:56:30;;;;;;;1.83;1.37;;;9.60;99.30;;;;;;5014129;28;20601;-77
2023/03/17 03:58:56;;;;;;;2.40;1.50;;;9.60;99.30;;;;;;5026025;28;20182;-77
2023/03/17 04:01:22;;;;;;;4.03;1.70;;;9.50;99.40;;;;;;5011130;28;20174;-77
2023/03/17 04:03:48;;;;;;;3.70;2.05;;;9.50;99.40;;;;;;5013640;28;20185;-77
2023/03/17 04:06:13;;;;;;;2.93;1.67;;;9.50;99.50;;;;;;4997354;28;20309;-78
2023/03/17 04:08:39;;;;;;;2.27;1.43;;;9.60;99.50;;;;;;5029728;28;20175;-78
2023/03/17 04:11:05;;;;;;;2.67;1.50;;;9.50;99.50;;;;;;5029857;28;20269;-77
2023/03/17 04:13:30;;;;;;;5.00;1.87;;;9.50;99.60;;;;;;5013159;28;20170;-78
2023/03/17 04:15:56;;;;;;;3.97;1.63;;;9.60;99.60;;;;;;5013895;28;20205;-78
2023/03/17 04:18:22;;;;;;;4.67;1.53;;;9.50;99.90;;;;;;5014590;28;20170;-77
2023/03/17 04:20:48;;;;;;;2.85;1.85;;;9.50;99.70;;;;;;5021270;28;20245;-78
2023/03/17 04:23:13;;;;;;;3.97;1.47;;;9.60;99.70;;;;;;5034190;28;20166;-77
2023/03/17 04:25:39;;;;;;;3.10;1.60;;;9.50;99.70;;;;;;5032382;28;20638;-77
2023/03/17 04:28:05;;;;;;;2.83;2.00;;;9.60;99.70;;;;;;5016819;28;20174;-77
2023/03/17 04:30:31;;;;;;;3.03;2.10;;;9.60;99.70;;;;;;5032970;28;20678;-77
2023/03/17 04:32:56;;;;;;;5.17;2.33;;;9.60;99.70;;;;;;5035353;28;20630;-77
2023/03/17 04:35:22;;;;;;;3.20;2.50;;;9.60;99.80;;;;;;5050396;28;20177;-78
2023/03/17 04:37:48;;;;;;;3.00;2.13;;;9.60;99.80;;;;;;5049894;28;20216;-77
2023/03/17 04:40:15;;;;;;;2.53;1.90;;;9.50;99.80;;;;;;5059738;28;20177;-78
2023/03/17 04:42:41;;;;;;;2.20;1.80;;;9.50;99.80;;;;;;5044319;28;20178;-77
2023/03/17 04:45:10;;;;;;;2.27;1.23;;;9.50;99.80;;;;;;5061147;28;20178;-78
2023/03/17 04:47:36;;;;;;;2.85;2.03;;;9.50;99.80;;;;;;5049029;28;20644;-78
2023/03/17 04:50:03;;;;;;;2.50;1.80;;;9.50;99.90;;;;;;5047063;28;20206;-78
2023/03/17 04:52:29;;;;;;;2.42;1.85;;;9.50;99.90;;;;;;5035180;28;20177;-78
2023/03/17 04:54:56;;;;;;;4.75;2.05;;;9.50;99.90;;;;;;5034581;28;20169;-78
2023/03/17 04:57:23;;;;;;;3.20;1.60;;;9.50;99.90;;;;;;5049231;28;20194;-77
2023/03/17 04:59:49;;;;;;;2.55;1.60;;;9.50;99.90;;;;;;5032521;28;20201;-77
2023/03/17 05:02:14;;;;;;;4.20;2.30;;;9.50;99.90;;;;;;5033555;28;20695;-78
2023/03/17 05:04:40;;;;;;;2.87;1.87;;;9.50;99.90;;;;;;5032133;28;21124;-78
2023/03/17 05:07:06;;;;;;;4.68;1.92;;;9.60;99.90;;;;;;5049022;28;20217;-78
2023/03/17 05:09:32;;;;;;;3.97;2.50;;;9.60;99.90;;;;;;5043168;28;20209;-78
2023/03/17 05:11:58;;;;;;;2.50;2.10;;;9.60;99.90;;;;;;5035488;28;20181;-78
2023/03/17 05:14:23;;;;;;;3.33;1.40;;;9.60;99.90;;;;;;5011773;28;20179;-79
2023/03/17 05:16:49;;;;;;;2.87;1.70;;;9.60;99.90;;;;;;5028723;28;20249;-79
2023/03/17 05:19:15;;;;;;;5.85;1.83;;;9.60;99.90;;;;;;5029179;28;20269;-79
2023/03/17 05:21:41;;;;;;;3.03;1.60;;;9.60;99.90;;;;;;5009635;28;20185;-79
2023/03/17 05:24:07;;;;;;;2.73;1.77;;;9.60;99.90;;;;;;5009513;28;20179;-77
2023/03/17 05:26:33;;;;;;;3.33;2.30;;;9.60;99.90;;;;;;4993193;28;20290;-77
2023/03/17 05:28:59;;;;;;;4.17;1.87;;;9.60;99.90;;;;;;4979088;28;20274;-78
2023/03/17 05:31:25;;;;;;;3.43;2.20;;;9.60;99.90;;;;;;4995803;28;20171;-78
2023/03/17 05:33:50;;;;;;;2.70;1.83;;;9.60;99.90;;;;;;4995373;28;21145;-77
2023/03/17 05:36:17;;;;;;;4.63;2.53;;;9.60;99.90;;;;;;4999396;28;20188;-78
2023/03/17 05:38:43;;;;;;;3.15;2.38;;;9.50;99.90;;;;;;5013094;28;20179;-78
2023/03/17 05:41:09;;;;;;;5.82;2.42;;;9.50;99.90;;;;;;4997433;28;20178;-79
2023/03/17 05:43:36;;;;;;;2.58;1.95;;;9.60;99.90;;;;;;5010522;28;20167;-77
2023/03/17 05:46:02;;;;;;;3.58;2.20;;;9.60;99.90;;;;;;5011106;28;20186;-77
2023/03/17 05:48:29;;;;;;;3.65;2.20;;;9.60;99.90;;;;;;4997912;28;20210;-77
2023/03/17 05:50:55;;;;;;;2.83;1.70;;;9.60;99.90;;;;;;4995582;28;20249;-77
2023/03/17 05:53:21;;;;;;;4.10;2.03;;;9.70;99.90;;;;;;4993807;28;20203;-77
2023/03/17 05:55:47;;;;;;;5.00;1.65;;;9.70;99.90;;;;;;4994218;28;20534;-77
2023/03/17 05:58:14;;;;;;;3.30;2.10;;;9.70;99.90;;;;;;4993670;28;20175;-77
2023/03/17 06:00:40;;;;;;;5.30;2.03;;;9.60;99.90;;;;;;5009564;28;20194;-77
2023/03/17 06:03:06;;;;;;;3.25;2.20;;;9.70;99.90;;;;;;4993758;28;20624;-78
2023/03/17 06:05:32;;;;;;;3.00;1.83;;;9.70;99.90;;;;;;4992701;28;20189;-77
2023/03/17 06:07:58;;;;;;;3.05;2.17;;;9.80;99.90;;;;;;4996213;28;20593;-78
2023/03/17 06:10:24;;;;;;;3.10;1.93;;;9.80;99.90;;;;;;5013092;28;20210;-77
2023/03/17 06:12:50;;;;;;;2.80;2.13;;;9.70;99.90;;;;;;5014308;28;20171;-77
2023/03/17 06:15:16;;;;;;;4.10;3.03;;;9.80;99.90;;;;;;5013794;28;20570;-77
2023/03/17 06:17:41;;;;;;;5.23;2.00;;;9.80;99.90;;;;;;5029201;28;20601;-77
2023/03/17 06:20:08;;;;;;;3.57;1.90;;;9.80;99.90;;;;;;5027432;28;20186;-77
2023/03/17 06:22:34;;;;;;;4.55;2.03;;;9.80;99.90;;;;;;5012317;28;20566;-78
2023/03/17 06:24:59;;;;;;;5.87;2.40;;;9.90;99.90;;;;;;5016134;28;20200;-77
2023/03/17 06:27:25;;;;;;;3.53;2.10;;;9.90;99.90;;;;;;5026993;28;20605;-77
2023/03/17 06:29:52;;;;;;;3.57;2.20;;;10.00;99.80;;;;;;5011065;28;20715;-78
2023/03/17 06:32:18;;;;;;;4.25;1.98;;;10.00;99.70;;;;;;5011424;28;20577;-77
2023/03/17 06:34:43;;;;;;;4.57;1.85;;;10.10;99.90;;;;;;5027128;28;20175;-78
2023/03/17 06:37:09;;;;;;;5.93;2.13;;;10.20;99.90;;;;;;5026660;28;20204;-78
2023/03/17 06:39:36;;;;;;;3.17;2.40;;;10.30;99.90;;;;;;5012111;28;20186;-78
2023/03/17 06:42:03;;;;;;;4.13;2.10;;;10.30;99.70;;;;;;5011559;28;20181;-78
2023/03/17 06:44:28;;;;;;;2.47;1.42;;;10.40;99.90;;;;;;5010506;28;20181;-78
2023/03/17 06:46:55;;;;;;;3.50;1.90;;;10.50;99.80;;;;;;5026582;28;20785;-77
2023/03/17 06:49:20;;;;;;;5.10;2.00;;;10.50;99.80;;;;;;5010027;28;21268;-78
2023/03/17 06:51:47;;;;;;;2.50;1.58;;;10.60;99.90;;;;;;5011550;28;20167;-78
2023/03/17 06:54:12;;;;;;;2.97;1.87;;;10.60;99.60;;;;;;5010363;28;20253;-78
2023/03/17 06:56:38;;;;;;;4.90;2.20;;;10.70;99.60;;;;;;5027005;28;20201;-78
2023/03/17 06:59:04;;;;;;;4.00;2.40;;;10.70;99.50;;;;;;5009916;28;20542;-77
2023/03/17 07:01:29;;;;;;;3.90;2.00;;;10.70;99.10;;;;;;4997501;28;20383;-78
2023/03/17 07:03:55;;;;;;;3.20;2.35;;;10.80;99.40;;;;;;5026760;28;20723;-78
2023/03/17 07:06:22;;;;;;;3.53;2.00;;;10.90;99.10;;;;;;5010489;28;20830;-78
2023/03/17 07:08:48;;;;;;;3.95;2.38;;;10.90;98.70;;;;;;4993167;28;20194;-78
2023/03/17 07:11:14;;;;;;;3.70;1.85;;;10.90;98.80;;;;;;5026631;28;20178;-78
2023/03/17 07:13:40;;;;;;;2.72;1.60;;;10.90;98.50;;;;;;5009876;28;20278;-78
2023/03/17 07:16:06;;;;;;;3.25;2.15;;;11.00;98.80;;;;;;5011026;28;20280;-77
2023/03/17 07:18:32;;;;;;;3.00;2.30;;;11.10;98.50;;;;;;5011402;28;20570;-78
2023/03/17 07:21:00;;;;;;;2.95;1.60;;;11.10;97.90;;;;;;5018255;28;20174;-77
2023/03/17 07:23:28;;;;;;;4.70;2.00;;;11.20;98.60;;;;;;5030572;28;20249;-77
2023/03/17 07:25:54;;;;;;;3.92;2.17;;;11.20;98.10;;;;;;5028678;28;20719;-78
2023/03/17 07:28:20;;;;;;;4.20;2.25;;;11.30;98.20;;;;;;5046004;28;20170;-77
2023/03/17 07:30:49;;;;;;;2.80;1.30;;;11.30;98.00;;;;;;5012851;28;20202;-77
2023/03/17 07:33:16;;;;;;;3.28;2.00;;;11.40;98.00;;;;;;5045984;28;20177;-77
2023/03/17 07:35:43;;;;;;;3.85;1.73;;;11.50;98.40;;;;;;5045723;28;20170;-78
2023/03/17 07:38:09;;;;;;;3.30;2.03;;;11.60;98.30;;;;;;5030724;28;21141;-78
2023/03/17 07:40:35;;;;;;;3.55;2.10;;;11.70;97.30;;;;;;5038210;28;20173;-78
2023/03/17 07:43:01;;;;;;;3.85;2.25;;;11.90;98.10;;;;;;5033690;28;20710;-77
2023/03/17 07:45:27;;;;;;;4.03;2.67;;;12.00;97.60;;;;;;5033676;28;20268;-78
2023/03/17 07:47:53;;;;;;;5.00;2.33;;;12.30;97.90;;;;;;5033212;28;20691;-78
2023/03/17 07:50:19;;;;;;;5.60;1.83;;;12.60;97.60;;;;;;5034869;28;20207;-78
2023/03/17 07:52:45;;;;;;;4.10;2.33;;;12.90;96.50;;;;;;5036788;28;20576;-78
2023/03/17 07:55:11;;;;;;;3.50;2.13;;;13.10;96.50;;;;;;5032283;28;20626;-78
2023/03/17 07:57:38;;;;;;;4.50;1.97;;;13.30;96.00;;;;;;5010255;28;21239;-79
2023/03/17 08:00:08;;;;;;;3.73;1.90;;;13.50;96.80;;;;;;5013281;28;20581;-79
2023/03/17 08:02:37;;;;;;;2.57;1.80;;;13.70;95.60;;;;;;5014047;28;20962;-77
2023/03/17 08:05:03;;;;;;;3.10;1.87;;;14.00;97.00;;;;;;5014950;28;20566;-78
2023/03/17 08:07:30;;;;;;;4.07;1.80;;;14.20;96.80;;;;;;5030094;28;20210;-77
2023/03/17 08:09:56;;;;;;;3.10;2.20;;;14.30;96.60;;;;;;5029324;28;20637;-78
2023/03/17 08:12:23;;;;;;;5.73;2.13;;;14.30;95.00;;;;;;5012764;28;20652;-78
2023/03/17 08:14:49;;;;;;;3.50;2.13;;;14.30;94.20;;;;;;4996530;28;20573;-77
2023/03/17 08:17:16;;;;;;;4.63;2.20;;;14.20;93.50;;;;;;5016630;28;20597;-80
2023/03/17 08:19:42;;;;;;;2.80;1.70;;;14.30;94.80;;;;;;5012979;28;20184;-78
2023/03/17 08:22:08;;;;;;;2.97;2.00;;;14.50;94.70;;;;;;5031200;28;20679;-77
2023/03/17 08:24:35;;;;;;;3.73;2.03;;;14.70;94.90;;;;;;5049382;28;20592;-78
2023/03/17 08:27:02;;;;;;;4.13;2.10;;;14.90;94.80;;;;;;5039965;28;21379;-77
2023/03/17 08:29:29;;;;;;;3.13;2.20;;;15.10;93.70;;;;;;4993091;28;20257;-78
2023/03/17 08:31:56;;;;;;;3.97;1.90;;;15.20;93.40;;;;;;4991845;28;20566;-78
2023/03/17 08:34:23;;;;;;;5.67;1.73;;;15.40;93.50;;;;;;4977251;28;21154;-78
2023/03/17 08:36:50;;;;;;;3.00;2.10;;;15.70;94.90;;;;;;4994143;28;20649;-78
2023/03/17 08:39:16;;;;;;;3.53;1.70;;;16.10;92.20;;;;;;4995464;28;20621;-78
2023/03/17 08:41:43;;;;;;;2.73;1.47;;;16.50;94.40;;;;;;4994773;28;20656;-79
2023/03/17 08:44:09;;;;;;;3.67;1.70;;;17.00;95.10;;;;;;4977487;28;21164;-78
2023/03/17 08:46:36;;;;;;;5.50;1.83;;;17.50;95.30;;;;;;4976940;28;20602;-77
2023/03/17 08:49:02;;;;;;;4.43;1.97;;;18.00;96.10;;;;;;4992693;28;20688;-78
2023/03/17 08:51:33;;;;;;;3.43;1.70;;;18.50;93.50;;;;;;4976364;28;20597;-78
2023/03/17 08:53:59;;;;;;;3.10;1.70;;;18.70;89.90;;;;;;4996761;28;20578;-77
2023/03/17 08:56:26;;;;;;;5.60;2.20;;;18.90;90.50;;;;;;4993843;28;21078;-78
2023/03/17 08:58:51;;;;;;;4.83;2.27;;;18.90;88.40;;;;;;5009322;28;22677;-78
2023/03/17 09:01:20;;;;;;;3.40;1.73;;;19.00;88.40;;;;;;5014360;28;20581;-77
2023/03/17 09:03:46;;;;;;;3.73;1.60;;;18.80;86.00;;;;;;5013377;28;20572;-78
2023/03/17 09:06:12;;;;;;;2.67;2.07;;;18.70;82.40;;;;;;5029104;28;21027;-77
2023/03/17 09:08:46;;;;;;;3.30;1.47;;;18.40;82.10;;;;;;5014351;28;20569;-77
2023/03/17 09:11:19;;;;;;;5.27;1.70;;;18.30;81.90;;;;;;5013897;28;20717;-77
2023/03/17 09:13:46;;;;;;;3.67;1.60;;;18.10;81.50;;;;;;5028055;28;20663;-78
2023/03/17 09:16:13;;;;;;;2.90;1.97;;;17.90;78.00;;;;;;5012420;28;20605;-78
2023/03/17 09:18:40;;;;;;;3.70;1.67;;;17.60;78.40;;;;;;5013402;28;20573;-78
2023/03/17 09:21:06;;;;;;;8.20;1.33;;;17.40;79.70;;;;;;5021516;28;20593;-78
2023/03/17 09:23:32;;;;;;;4.33;1.60;;;17.20;80.50;;;;;;5032947;28;20588;-78
2023/03/17 09:25:59;;;;;;;2.40;1.50;;;17.10;82.50;;;;;;5015232;28;20607;-78
2023/03/17 09:28:25;;;;;;;4.27;1.83;;;17.10;82.10;;;;;;5032037;28;21158;-79
2023/03/17 09:30:51;;;;;;;4.17;1.80;;;17.20;84.00;;;;;;5033875;28;20642;-79
2023/03/17 09:33:17;;;;;;;7.10;1.80;;;17.20;83.10;;;;;;5012781;28;20700;-79
2023/03/17 09:35:43;;;;;;;2.47;1.70;;;17.20;82.80;;;;;;5017034;28;20585;-79
2023/03/17 09:38:10;;;;;;;3.73;1.63;;;17.20;81.00;;;;;;5016178;28;20650;-80
2023/03/17 09:40:47;;;;;;;2.10;1.37;;;17.10;79.90;;;;;;5016729;28;20194;-79
2023/03/17 09:43:31;;;;;;;3.90;1.60;;;17.10;79.60;;;;;;5018890;28;20993;-78
2023/03/17 09:46:17;;;;;;;5.20;1.50;;;17.30;79.80;;;;;;5018291;28;20570;-79
2023/03/17 09:49:06;;;;;;;4.03;1.33;;;17.30;78.10;;;;;;5020702;28;20581;-79
2023/03/17 09:51:34;;;;;;;1.97;1.30;;;17.40;78.60;;;;;;5025708;28;20631;-79
2023/03/17 09:54:06;;;;;;;1.93;1.30;;;17.60;81.40;;;;;;5031561;28;20628;-80
2023/03/17 09:56:34;;;;;;;3.10;1.70;;;17.70;78.20;;;;;;5022376;28;20664;-79
2023/03/17 09:59:34;;;;;;;3.93;1.17;;;18.00;80.10;;;;;;5019022;28;20577;-80
2023/03/17 10:02:00;;;;;;;3.73;1.60;;;18.10;77.80;;;;;;5011398;28;20652;-80
2023/03/17 10:04:27;;;;;;;2.47;1.17;;;18.30;72.90;;;;;;5011358;28;20581;-80
2023/03/17 10:07:01;;;;;;;4.50;1.33;;;18.30;76.60;;;;;;5011803;28;21203;-79
2023/03/17 10:09:40;;;;;;;3.03;1.20;;;18.30;73.60;;;;;;5013975;28;21261;-80
2023/03/17 10:12:24;;;;;;;3.33;1.40;;;18.50;76.20;;;;;;5011126;28;20589;-79
2023/03/17 10:14:59;;;;;;;2.83;1.30;;;18.50;75.70;;;;;;4994875;28;20612;-80
2023/03/17 10:17:38;;;;;;;3.80;1.60;;;18.50;73.70;;;;;;5011465;28;20605;-80
2023/03/17 10:20:14;;;;;;;3.20;1.20;;;18.50;74.60;;;;;;5006582;28;20590;-79
2023/03/17 10:22:57;;;;;;;2.67;1.00;;;18.60;76.80;;;;;;4975382;28;20672;-79
2023/03/17 10:25:28;;;;;;;2.57;1.20;;;18.70;77.50;;;;;;4991442;28;20605;-79
2023/03/17 10:28:20;;;;;;;2.30;1.20;;;19.00;78.10;;;;;;4993167;28;20685;-79
2023/03/17 10:30:45;;;;;;;3.93;1.17;;;19.10;75.80;;;;;;4991059;28;20637;-79
2023/03/17 10:33:11;;;;;;;2.87;1.00;;;19.10;74.80;;;;;;4992568;28;20672;-79
2023/03/17 10:35:39;;;;;;;3.60;1.13;;;19.30;76.00;;;;;;4991344;28;20206;-80
2023/03/17 10:38:21;;;;;;;3.43;1.20;;;19.40;76.50;;;;;;4994197;28;20589;-80
2023/03/17 10:40:56;;;;;;;3.33;1.20;;;19.40;72.30;;;;;;5010748;28;20581;-80
2023/03/17 10:43:28;;;;;;;2.00;1.10;;;19.40;69.30;;;;;;5010638;28;20585;-80
2023/03/17 10:46:02;;;;;;;2.43;1.27;;;19.60;71.30;;;;;;5013469;28;20636;-79
2023/03/17 10:48:29;;;;;;;2.33;1.27;;;19.80;71.70;;;;;;4978147;28;21176;-80
2023/03/17 10:50:57;;;;;;;2.97;1.40;;;19.90;71.80;;;;;;4984416;28;20645;-80
2023/03/17 10:53:34;;;;;;;4.00;1.23;;;19.90;71.20;;;;;;5010764;28;20715;-80
2023/03/17 10:56:09;;;;;;;4.57;1.27;;;20.00;69.10;;;;;;5027264;28;20675;-80
2023/03/17 10:58:44;;;;;;;3.10;1.20;;;20.00;69.60;;;;;;5026667;28;20577;-79
2023/03/17 11:01:21;;;;;;;2.47;1.10;;;20.00;71.00;;;;;;5010432;28;20663;-79
2023/03/17 11:03:48;;;;;;;2.07;1.00;;;20.00;69.40;;;;;;5026432;28;20597;-79
2023/03/17 11:06:17;;;;;;;3.23;0.93;;;20.00;71.70;;;;;;5026691;28;20652;-80
2023/03/17 11:08:50;;;;;;;3.90;1.13;;;20.20;71.30;;;;;;5026289;28;20578;-79
2023/03/17 11:11:45;;;;;;;3.90;1.00;;;20.40;71.50;;;;;;5011673;28;20601;-80
2023/03/17 11:14:14;;;;;;;1.80;1.00;;;20.60;67.50;;;;;;5025783;28;20636;-80
2023/03/17 11:16:57;;;;;;;2.60;1.30;;;20.90;70.80;;;;;;5010605;28;20773;-79
2023/03/17 11:19:55;;;;;;;7.17;1.90;;;20.90;64.60;;;;;;5008840;28;20594;-79
2023/03/17 11:22:40;;;;;;;3.40;1.10;;;21.00;68.20;;;;;;4990650;28;20628;-74
2023/03/17 11:25:12;;;;;;;2.17;1.00;;;21.20;69.10;;;;;;4985997;28;20601;-74
2023/03/17 11:28:05;;;;;;;2.40;1.10;;;21.20;65.00;;;;;;5011309;28;20625;-74
2023/03/17 11:30:43;;;;;;;3.90;1.37;;;21.00;66.30;;;;;;5009761;28;20728;-74
2023/03/17 11:33:33;;;;;;;2.50;1.40;;;20.90;61.80;;;;;;5009734;28;20593;-74
2023/03/17 11:36:23;;;;;;;2.83;1.10;;;20.80;63.30;;;;;;5009687;28;20669;-74
2023/03/17 11:39:06;;;;;;;2.20;1.00;;;20.80;65.30;;;;;;5011555;28;20578;-74
2023/03/17 11:42:04;;;;;;;3.53;1.10;;;20.60;64.00;;;;;;5010822;28;20577;-74
2023/03/17 11:44:55;;;;;;;3.70;1.33;;;20.50;64.80;;;;;;5010016;28;20586;-74
2023/03/17 11:47:45;;;;;;;1.90;1.00;;;20.60;66.10;;;;;;5010848;28;20633;-73
2023/03/17 11:50:26;;;;;;;3.00;1.20;;;20.90;69.40;;;;;;4990778;28;20629;-73
2023/03/17 11:53:04;;;;;;;3.30;1.40;;;21.10;69.60;;;;;;4992486;28;20713;-72
2023/03/17 11:55:54;;;;;;;2.73;0.97;;;21.30;69.00;;;;;;4991311;28;20677;-73
2023/03/17 11:58:36;;;;;;;5.07;1.23;;;21.50;67.60;;;;;;4993142;28;20959;-73
2023/03/17 12:01:09;;;;;;;2.40;1.20;;;21.70;65.80;;;;;;4992265;28;20649;-74
2023/03/17 12:03:51;;;;;;;1.90;0.90;;;21.70;64.90;;;;;;4992240;28;20574;-73
2023/03/17 12:06:41;;;;;;;3.00;0.97;;;21.50;59.90;;;;;;4992679;28;20605;-74
2023/03/17 12:09:24;;;;;;;1.90;1.20;;;21.40;59.80;;;;;;4974912;28;20633;-74
2023/03/17 12:11:52;;;;;;;3.37;1.07;;;21.40;63.90;;;;;;4990750;28;20570;-72
2023/03/17 12:14:33;;;;;;;3.00;1.10;;;21.10;62.50;;;;;;5010626;28;20578;-72
2023/03/17 12:17:35;;;;;;;3.57;1.17;;;21.00;63.00;;;;;;4993645;28;20617;-72
2023/03/17 12:20:05;;;;;;;5.33;1.37;;;20.90;62.30;;;;;;4998117;28;20629;-74
2023/03/17 12:22:43;;;;;;;2.27;0.90;;;20.80;63.60;;;;;;5046181;28;20639;-72
2023/03/17 12:25:24;;;;;;;2.13;1.20;;;20.70;62.20;;;;;;5032370;28;20639;-72
2023/03/17 12:28:09;;;;;;;4.50;1.60;;;20.50;62.80;;;;;;5034258;28;20616;-73
2023/03/17 12:31:04;;;;;;;4.03;0.80;;;20.40;62.50;;;;;;5032368;28;20742;-72
2023/03/17 12:33:42;;;;;;;2.30;1.40;;;20.30;61.00;;;;;;5049012;28;20579;-72
2023/03/17 12:36:13;;;;;;;3.47;1.97;;;20.10;60.60;;;;;;5016357;28;20614;-72
2023/03/17 12:39:05;;;;;;;4.60;1.63;;;20.00;61.90;;;;;;5025440;28;20724;-72
2023/03/17 12:42:00;;;;;;;4.83;1.53;;;20.00;63.50;;;;;;5013623;28;20565;-73
2023/03/17 12:44:35;;;;;;;2.17;1.10;;;20.00;63.00;;;;;;5024865;28;20585;-73
2023/03/17 12:47:38;;;;;;;4.67;1.10;;;20.10;64.00;;;;;;4992777;28;20708;-72
2023/03/17 12:50:22;;;;;;;3.30;1.13;;;20.20;63.40;;;;;;4992887;28;20633;-73
2023/03/17 12:53:08;;;;;;;5.63;1.13;;;20.30;63.90;;;;;;4999833;28;20596;-73
2023/03/17 12:55:37;;;;;;;2.60;1.43;;;20.30;64.60;;;;;;4996338;28;20587;-73
2023/03/17 12:58:22;;;;;;;2.93;1.40;;;20.40;63.90;;;;;;5012009;28;20612;-73
2023/03/17 13:01:27;;;;;;;3.53;1.63;;;20.40;63.80;;;;;;5012420;28;20574;-73
2023/03/17 13:04:11;;;;;;;5.37;3.00;;;20.20;62.50;;;;;;5013134;28;20967;-74
2023/03/17 13:06:42;;;;;;;3.97;2.90;;;20.30;64.50;;;;;;5013147;28;21023;-73